createdAt,value
2022-12-27T00:02:03.384Z,3.05
2022-12-27T00:04:30.255Z,3.01
2022-12-27T00:06:56.857Z,2.97
2022-12-27T00:09:23.448Z,2.93
2022-12-27T00:11:53.591Z,2.83
2022-12-27T00:14:22.913Z,2.90
2022-12-27T00:16:49.485Z,2.94
2022-12-27T00:19:16.075Z,2.96
2022-12-27T00:21:42.663Z,2.97
2022-12-27T00:24:10.398Z,3.07
2022-12-27T00:26:38.198Z,3.14
2022-12-27T00:29:04.911Z,3.11
2022-12-27T00:31:32.271Z,3.12
2022-12-27T00:34:02.049Z,3.10
2022-12-27T00:36:30.554Z,3.13
2022-12-27T00:39:00.174Z,3.17
2022-12-27T00:41:27.209Z,3.16
2022-12-27T00:43:53.850Z,3.22
2022-12-27T00:46:20.407Z,3.28
2022-12-27T00:48:47.185Z,3.36
2022-12-27T00:51:17.142Z,3.44
2022-12-27T00:53:44.140Z,3.44
2022-12-27T00:56:17.816Z,3.36
2022-12-27T00:58:45.091Z,3.32
2022-12-27T01:01:14.682Z,3.30
2022-12-27T01:03:41.337Z,3.33
2022-12-27T01:06:14.478Z,3.31
2022-12-27T01:08:41.573Z,3.29
2022-12-27T01:11:09.065Z,3.32
2022-12-27T01:13:36.413Z,3.37
2022-12-27T01:16:12.626Z,3.44
2022-12-27T01:18:39.316Z,3.51
2022-12-27T01:21:11.495Z,3.70
2022-12-27T01:23:38.782Z,3.80
2022-12-27T01:26:07.995Z,3.92
2022-12-27T01:28:35.303Z,3.97
2022-12-27T01:31:16.106Z,3.97
2022-12-27T01:33:42.688Z,4.00
2022-12-27T01:36:15.482Z,3.97
2022-12-27T01:38:47.895Z,4.00
2022-12-27T01:41:41.820Z,4.01
2022-12-27T01:44:51.613Z,4.05
2022-12-27T01:47:44.181Z,4.12
2022-12-27T01:50:33.644Z,4.14
2022-12-27T01:53:37.411Z,4.09
2022-12-27T01:56:13.930Z,4.01
2022-12-27T01:58:48.155Z,3.94
2022-12-27T02:01:25.268Z,4.01
2022-12-27T02:04:02.459Z,3.96
2022-12-27T02:06:31.213Z,3.95
2022-12-27T02:09:22.553Z,3.91
2022-12-27T02:11:55.228Z,3.84
2022-12-27T02:14:30.636Z,3.77
2022-12-27T02:16:59.516Z,3.74
2022-12-27T02:19:38.230Z,3.74
2022-12-27T02:22:52.953Z,3.70
2022-12-27T02:25:50.238Z,3.63
2022-12-27T02:28:22.873Z,3.71
2022-12-27T02:30:53.490Z,3.64
2022-12-27T02:33:25.195Z,3.63
2022-12-27T02:36:00.319Z,3.62
2022-12-27T02:38:37.972Z,3.57
2022-12-27T02:41:27.001Z,3.52
2022-12-27T02:44:13.914Z,3.45
2022-12-27T02:46:59.446Z,3.43
2022-12-27T02:49:59.096Z,3.38
2022-12-27T02:53:05.998Z,3.31
2022-12-27T02:56:09.987Z,3.32
2022-12-27T02:59:11.578Z,3.24
2022-12-27T03:02:23.785Z,3.25
2022-12-27T03:05:00.329Z,3.24
2022-12-27T03:07:41.515Z,3.23
2022-12-27T03:10:46.579Z,3.20
2022-12-27T03:13:42.660Z,3.19
2022-12-27T03:16:11.885Z,3.21
2022-12-27T03:19:36.106Z,3.12
2022-12-27T03:22:22.546Z,3.06
2022-12-27T03:25:07.531Z,3.01
2022-12-27T03:27:37.027Z,3.01
2022-12-27T03:30:26.885Z,2.98
2022-12-27T03:33:13.667Z,3.05
2022-12-27T03:36:05.422Z,3.13
2022-12-27T03:38:36.570Z,3.21
2022-12-27T03:41:25.424Z,3.17
2022-12-27T03:43:52.081Z,3.14
2022-12-27T03:46:34.738Z,3.13
2022-12-27T03:49:10.229Z,3.11
2022-12-27T03:52:02.550Z,3.04
2022-12-27T03:54:39.230Z,3.09
2022-12-27T03:57:09.764Z,3.12
2022-12-27T03:59:36.263Z,3.11
2022-12-27T04:02:03.738Z,3.13
2022-12-27T04:04:30.320Z,3.01
2022-12-27T04:06:57.074Z,3.09
2022-12-27T04:09:42.721Z,3.08
2022-12-27T04:12:28.013Z,3.16
2022-12-27T04:15:13.127Z,3.27
2022-12-27T04:17:58.550Z,3.37
2022-12-27T04:20:44.188Z,3.41
2022-12-27T04:23:29.284Z,3.46
2022-12-27T04:26:15.379Z,3.46
2022-12-27T04:29:00.984Z,3.44
2022-12-27T04:31:46.112Z,3.35
2022-12-27T04:34:31.294Z,3.34
2022-12-27T04:36:57.843Z,3.35
2022-12-27T04:39:24.368Z,3.49
2022-12-27T04:42:09.595Z,3.49
2022-12-27T04:44:54.654Z,3.49
2022-12-27T04:47:41.227Z,3.46
2022-12-27T04:50:42.230Z,3.40
2022-12-27T04:53:37.238Z,3.35
2022-12-27T04:56:04.986Z,3.31
2022-12-27T04:58:32.760Z,3.26
2022-12-27T05:01:20.217Z,3.30
2022-12-27T05:03:49.561Z,3.25
2022-12-27T05:06:17.296Z,3.18
2022-12-27T05:09:22.951Z,3.21
2022-12-27T05:12:28.094Z,3.18
2022-12-27T05:14:54.576Z,3.14
2022-12-27T05:17:21.058Z,3.09
2022-12-27T05:19:47.665Z,3.04
2022-12-27T05:22:32.577Z,3.01
2022-12-27T05:25:17.357Z,3.03
2022-12-27T05:27:44.422Z,2.97
2022-12-27T05:30:11.602Z,3.00
2022-12-27T05:32:38.157Z,2.98
2022-12-27T05:35:05.020Z,2.93
2022-12-27T05:37:31.528Z,2.81
2022-12-27T05:39:57.986Z,2.82
2022-12-27T05:42:24.514Z,2.80
2022-12-27T05:44:51.115Z,2.70
2022-12-27T05:47:17.919Z,2.71
2022-12-27T05:49:44.404Z,2.67
2022-12-27T05:52:10.895Z,2.61
2022-12-27T05:54:37.470Z,2.57
2022-12-27T05:57:04.029Z,2.57
2022-12-27T05:59:30.541Z,2.63
2022-12-27T06:01:57.124Z,2.72
2022-12-27T06:04:23.717Z,2.73
2022-12-27T06:06:50.304Z,2.70
2022-12-27T06:09:16.958Z,2.67
2022-12-27T06:11:43.419Z,2.60
2022-12-27T06:14:09.939Z,2.55
2022-12-27T06:16:36.691Z,2.52
2022-12-27T06:19:03.308Z,2.59
2022-12-27T06:21:30.003Z,2.58
2022-12-27T06:23:56.496Z,2.63
2022-12-27T06:26:25.356Z,2.70
2022-12-27T06:28:52.524Z,2.81
2022-12-27T06:31:20.708Z,2.79
2022-12-27T06:33:48.167Z,2.73
2022-12-27T06:36:18.313Z,2.71
2022-12-27T06:38:45.613Z,2.71
2022-12-27T06:41:14.197Z,2.73
2022-12-27T06:43:41.571Z,2.71
2022-12-27T06:46:16.979Z,2.71
2022-12-27T06:48:44.799Z,2.76
2022-12-27T06:51:12.875Z,2.88
2022-12-27T06:53:39.655Z,2.88
2022-12-27T06:56:07.716Z,2.96
2022-12-27T06:58:34.312Z,3.00
2022-12-27T07:01:20.863Z,3.06
2022-12-27T07:03:52.112Z,3.06
2022-12-27T07:06:19.789Z,3.06
2022-12-27T07:08:47.277Z,3.03
2022-12-27T07:11:15.054Z,2.96
2022-12-27T07:13:44.787Z,2.97
2022-12-27T07:16:13.881Z,2.92
2022-12-27T07:18:40.853Z,2.92
2022-12-27T07:21:09.924Z,2.94
2022-12-27T07:23:36.946Z,2.92
2022-12-27T07:26:10.296Z,2.90
2022-12-27T07:28:37.802Z,2.84
2022-12-27T07:31:18.954Z,2.76
2022-12-27T07:33:45.889Z,2.69
2022-12-27T07:36:21.615Z,2.64
2022-12-27T07:38:48.664Z,2.67
2022-12-27T07:41:15.356Z,2.69
2022-12-27T07:43:43.444Z,2.70
2022-12-27T07:46:13.906Z,2.74
2022-12-27T07:48:41.415Z,2.75
2022-12-27T07:51:08.426Z,2.76
2022-12-27T07:53:35.419Z,2.74
2022-12-27T07:56:13.744Z,2.76
2022-12-27T07:58:42.619Z,2.84
2022-12-27T08:01:10.373Z,2.86
2022-12-27T08:03:37.548Z,2.87
2022-12-27T08:06:04.870Z,2.91
2022-12-27T08:08:40.303Z,2.96
2022-12-27T08:11:07.097Z,2.95
2022-12-27T08:13:33.909Z,2.95
2022-12-27T08:16:00.574Z,2.98
2022-12-27T08:18:27.363Z,3.07
2022-12-27T08:20:54.008Z,3.14
2022-12-27T08:23:21.029Z,3.15
2022-12-27T08:25:49.097Z,3.23
2022-12-27T08:28:17.541Z,3.34
2022-12-27T08:30:45.739Z,3.43
2022-12-27T08:33:12.789Z,3.52
2022-12-27T08:35:53.752Z,3.53
2022-12-27T08:38:20.896Z,3.67
2022-12-27T08:40:47.533Z,3.63
2022-12-27T08:43:15.303Z,3.69
2022-12-27T08:45:42.267Z,3.75
2022-12-27T08:48:08.990Z,3.97
2022-12-27T08:50:35.650Z,4.16
2022-12-27T08:53:03.792Z,4.24
2022-12-27T08:55:31.155Z,4.33
2022-12-27T08:57:58.917Z,4.31
2022-12-27T09:00:26.850Z,4.40
2022-12-27T09:02:53.915Z,4.52
2022-12-27T09:05:22.130Z,4.58
2022-12-27T09:07:49.522Z,4.60
2022-12-27T09:10:17.355Z,4.67
2022-12-27T09:12:45.557Z,4.70
2022-12-27T09:15:12.455Z,4.79
2022-12-27T09:17:39.417Z,4.88
2022-12-27T09:20:06.455Z,4.99
2022-12-27T09:22:33.627Z,4.99
2022-12-27T09:25:00.243Z,5.10
2022-12-27T09:27:26.819Z,5.20
2022-12-27T09:29:53.348Z,5.30
2022-12-27T09:32:19.945Z,5.41
2022-12-27T09:34:46.516Z,5.57
2022-12-27T09:37:13.111Z,5.58
2022-12-27T09:39:39.765Z,5.50
2022-12-27T09:45:33.745Z,5.64
2022-12-27T09:48:11.307Z,5.69
2022-12-27T09:50:51.279Z,5.93
2022-12-27T09:53:26.840Z,6.14
2022-12-27T09:55:58.076Z,6.09
2022-12-27T09:58:49.301Z,5.93
2022-12-27T10:01:25.287Z,5.88
2022-12-27T10:03:53.302Z,5.87
2022-12-27T10:06:50.016Z,5.83
2022-12-27T10:09:37.896Z,5.86
2022-12-27T10:12:23.339Z,5.91
2022-12-27T10:15:13.902Z,5.99
2022-12-27T10:17:54.873Z,6.08
2022-12-27T10:20:49.703Z,6.18
2022-12-27T10:23:20.386Z,6.30
2022-12-27T10:25:47.731Z,6.58
2022-12-27T10:28:25.692Z,6.89
2022-12-27T10:30:53.055Z,6.96
2022-12-27T10:33:28.758Z,6.92
2022-12-27T10:35:55.348Z,6.81
2022-12-27T10:38:22.083Z,6.66
2022-12-27T10:41:17.383Z,6.56
2022-12-27T10:43:48.046Z,6.45
2022-12-27T10:46:28.976Z,6.45
2022-12-27T10:51:47.211Z,6.48
2022-12-27T10:54:16.681Z,6.54
2022-12-27T10:56:44.909Z,6.66
2022-12-27T10:59:16.892Z,7.01
2022-12-27T11:01:49.133Z,7.17
2022-12-27T11:04:21.568Z,7.03
2022-12-27T11:07:10.750Z,6.88
2022-12-27T11:09:39.033Z,6.75
2022-12-27T11:12:14.495Z,6.71
2022-12-27T11:15:01.115Z,6.62
2022-12-27T11:17:40.450Z,6.62
2022-12-27T11:20:31.476Z,6.68
2022-12-27T11:23:09.819Z,6.69
2022-12-27T11:25:58.249Z,6.71
2022-12-27T11:28:43.029Z,6.79
2022-12-27T11:31:18.091Z,6.77
2022-12-27T11:33:53.505Z,6.70
2022-12-27T11:36:37.222Z,6.74
2022-12-27T11:39:05.797Z,6.67
2022-12-27T11:41:34.931Z,6.66
2022-12-27T11:44:16.448Z,6.74
2022-12-27T11:46:52.647Z,6.81
2022-12-27T11:49:27.597Z,6.80
2022-12-27T11:52:22.723Z,6.65
2022-12-27T11:55:14.080Z,6.61
2022-12-27T11:57:53.423Z,6.54
2022-12-27T12:00:23.810Z,6.46
2022-12-27T12:03:01.509Z,6.40
2022-12-27T12:05:46.018Z,6.37
2022-12-27T12:08:33.599Z,6.29
2022-12-27T12:11:03.015Z,6.30
2022-12-27T12:13:35.186Z,6.24
2022-12-27T12:16:32.562Z,6.16
2022-12-27T12:19:00.944Z,6.11
2022-12-27T12:21:37.042Z,6.12
2022-12-27T12:24:23.285Z,6.16
2022-12-27T12:27:31.711Z,6.21
2022-12-27T12:30:27.295Z,6.20
2022-12-27T12:32:57.004Z,6.19
2022-12-27T12:35:38.770Z,6.18
2022-12-27T12:38:44.667Z,6.14
2022-12-27T12:41:54.691Z,6.23
2022-12-27T12:44:24.268Z,6.37
2022-12-27T12:47:20.900Z,6.40
2022-12-27T12:50:15.141Z,6.45
2022-12-27T12:52:57.673Z,6.41
2022-12-27T12:55:30.932Z,6.37
2022-12-27T12:58:20.431Z,6.45
2022-12-27T13:01:10.284Z,6.47
2022-12-27T13:03:54.931Z,6.58
2022-12-27T13:06:57.571Z,6.55
2022-12-27T13:09:59.575Z,6.59
2022-12-27T13:12:38.160Z,6.59
2022-12-27T13:15:10.703Z,6.57
2022-12-27T13:17:55.725Z,6.61
2022-12-27T13:20:46.817Z,6.64
2022-12-27T13:23:43.391Z,6.82
2022-12-27T13:26:34.175Z,6.90
2022-12-27T13:29:37.979Z,6.86
2022-12-27T13:32:13.286Z,6.77
2022-12-27T13:35:03.295Z,6.81
2022-12-27T13:37:46.952Z,6.81
2022-12-27T13:40:42.960Z,6.67
2022-12-27T13:43:31.026Z,6.72
2022-12-27T13:46:17.522Z,6.64
2022-12-27T13:49:23.458Z,6.61
2022-12-27T13:51:51.946Z,6.62
2022-12-27T13:54:41.907Z,6.59
2022-12-27T13:57:38.863Z,6.60
2022-12-27T14:00:21.458Z,6.65
2022-12-27T14:03:06.441Z,6.73
2022-12-27T14:05:48.164Z,6.83
2022-12-27T14:08:36.348Z,6.94
2022-12-27T14:11:03.473Z,6.92
2022-12-27T14:13:43.961Z,6.96
2022-12-27T14:16:21.351Z,6.96
2022-12-27T14:18:53.819Z,6.95
2022-12-27T14:21:44.461Z,6.91
2022-12-27T14:24:29.141Z,6.94
2022-12-27T14:27:17.174Z,6.93
2022-12-27T14:30:05.167Z,6.96
2022-12-27T14:33:12.896Z,6.97
2022-12-27T14:35:54.275Z,6.99
2022-12-27T14:38:20.776Z,7.04
2022-12-27T14:41:08.984Z,7.13
2022-12-27T14:44:06.817Z,7.22
2022-12-27T14:47:10.654Z,7.27
2022-12-27T14:50:05.064Z,7.30
2022-12-27T14:53:07.576Z,7.23
2022-12-27T14:55:55.476Z,7.17
2022-12-27T14:58:42.663Z,7.18
2022-12-27T15:01:39.768Z,7.07
2022-12-27T15:04:18.081Z,7.19
2022-12-27T15:06:56.541Z,7.19
2022-12-27T15:09:33.738Z,7.23
2022-12-27T15:12:13.204Z,7.12
2022-12-27T15:14:43.049Z,7.13
2022-12-27T15:17:55.828Z,7.04
2022-12-27T15:20:25.322Z,7.05
2022-12-27T15:23:12.504Z,7.00
2022-12-27T15:25:53.973Z,7.00
2022-12-27T15:28:39.209Z,6.94
2022-12-27T15:31:19.962Z,6.91
2022-12-27T15:34:27.678Z,6.93
2022-12-27T15:36:54.404Z,6.73
2022-12-27T15:39:33.070Z,6.72
2022-12-27T15:42:11.459Z,6.73
2022-12-27T15:45:02.140Z,6.72
2022-12-27T15:47:47.013Z,6.64
2022-12-27T15:50:37.594Z,6.65
2022-12-27T15:53:21.299Z,6.58
2022-12-27T15:56:33.500Z,6.72
2022-12-27T15:59:33.942Z,6.87
2022-12-27T16:02:25.312Z,6.92
2022-12-27T16:05:04.454Z,6.80
2022-12-27T16:07:53.042Z,6.82
2022-12-27T16:10:31.783Z,6.83
2022-12-27T16:13:13.066Z,6.76
2022-12-27T16:15:47.845Z,6.72
2022-12-27T16:18:18.154Z,6.68
2022-12-27T16:21:22.444Z,6.64
2022-12-27T16:23:58.915Z,6.67
2022-12-27T16:26:29.723Z,6.76
2022-12-27T16:29:13.849Z,6.78
2022-12-27T16:31:48.509Z,6.71
2022-12-27T16:34:29.456Z,6.64
2022-12-27T16:36:59.824Z,6.68
2022-12-27T16:39:39.374Z,6.72
2022-12-27T16:42:08.337Z,6.66
2022-12-27T16:45:03.603Z,6.66
2022-12-27T16:47:58.493Z,6.58
2022-12-27T16:51:10.558Z,6.49
2022-12-27T16:53:55.735Z,6.47
2022-12-27T16:56:24.125Z,6.44
2022-12-27T16:58:51.124Z,6.41
2022-12-27T17:01:35.705Z,6.41
2022-12-27T17:04:03.387Z,6.34
2022-12-27T17:06:32.523Z,6.30
2022-12-27T17:09:09.119Z,6.33
2022-12-27T17:11:47.516Z,6.31
2022-12-27T17:14:31.617Z,6.30
2022-12-27T17:17:08.509Z,6.38
2022-12-27T17:20:00.064Z,6.37
2022-12-27T17:22:34.198Z,6.34
2022-12-27T17:25:03.171Z,6.36
2022-12-27T17:27:42.672Z,6.38
2022-12-27T17:30:22.995Z,6.33
2022-12-27T17:33:12.392Z,6.33
2022-12-27T17:35:55.212Z,6.34
2022-12-27T17:38:21.755Z,6.35
2022-12-27T17:41:15.393Z,6.31
2022-12-27T17:44:10.086Z,6.36
2022-12-27T17:46:45.499Z,6.31
2022-12-27T17:49:12.187Z,6.33
2022-12-27T17:52:03.211Z,6.30
2022-12-27T17:54:48.899Z,6.22
2022-12-27T17:57:36.620Z,6.22
2022-12-27T18:00:06.359Z,6.26
2022-12-27T18:02:37.479Z,6.22
2022-12-27T18:05:11.098Z,6.22
2022-12-27T18:07:37.868Z,6.20
2022-12-27T18:10:15.418Z,6.21
2022-12-27T18:12:46.495Z,6.18
2022-12-27T18:15:19.174Z,6.22
2022-12-27T18:17:49.574Z,6.23
2022-12-27T18:20:37.247Z,6.21
2022-12-27T18:23:03.696Z,6.15
2022-12-27T18:25:43.733Z,6.09
2022-12-27T18:28:20.833Z,6.06
2022-12-27T18:31:12.971Z,6.13
2022-12-27T18:33:44.509Z,6.11
2022-12-27T18:36:21.050Z,6.09
2022-12-27T18:38:55.718Z,6.19
2022-12-27T18:41:23.894Z,6.09
2022-12-27T18:44:00.757Z,6.21
2022-12-27T18:46:34.167Z,6.15
2022-12-27T18:49:01.328Z,6.12
2022-12-27T18:51:39.995Z,6.02
2022-12-27T18:54:31.068Z,6.12
2022-12-27T18:57:00.458Z,6.15
2022-12-27T18:59:36.120Z,6.06
2022-12-27T19:02:35.532Z,6.13
2022-12-27T19:05:25.769Z,6.16
2022-12-27T19:08:17.015Z,6.14
2022-12-27T19:10:49.240Z,6.13
2022-12-27T19:13:27.490Z,6.13
2022-12-27T19:15:56.864Z,6.13
2022-12-27T19:18:37.113Z,6.17
2022-12-27T19:21:06.303Z,6.18
2022-12-27T19:23:37.451Z,6.18
2022-12-27T19:26:25.327Z,6.27
2022-12-27T19:29:06.959Z,6.33
2022-12-27T19:31:45.663Z,6.31
2022-12-27T19:34:18.372Z,6.40
2022-12-27T19:36:51.508Z,6.34
2022-12-27T19:39:21.855Z,6.44
2022-12-27T19:41:51.449Z,6.50
2022-12-27T19:44:19.147Z,6.48
2022-12-27T19:46:46.221Z,6.45
2022-12-27T19:49:40.989Z,6.48
2022-12-27T19:51:59.868Z,6.53
2022-12-27T19:54:26.936Z,6.61
2022-12-27T19:56:58.060Z,6.49
2022-12-27T19:59:25.259Z,6.61
2022-12-27T20:01:52.716Z,6.55
2022-12-27T20:04:19.606Z,6.53
2022-12-27T20:06:48.813Z,6.57
2022-12-27T20:09:21.272Z,6.62
2022-12-27T20:11:49.904Z,6.60
2022-12-27T20:14:17.994Z,6.70
2022-12-27T20:16:45.549Z,6.73
2022-12-27T20:19:13.407Z,6.73
2022-12-27T20:21:40.640Z,6.73
2022-12-27T20:24:12.305Z,6.78
2022-12-27T20:26:40.431Z,6.79
2022-12-27T20:29:08.022Z,6.79
2022-12-27T20:31:42.454Z,6.67
2022-12-27T20:34:14.074Z,6.80
2022-12-27T20:36:43.362Z,6.80
2022-12-27T20:39:12.788Z,6.77
2022-12-27T20:41:39.914Z,6.81
2022-12-27T20:44:07.676Z,6.81
2022-12-27T20:46:35.151Z,6.83
2022-12-27T20:49:03.141Z,6.70
2022-12-27T20:51:35.046Z,6.77
2022-12-27T20:54:02.994Z,6.71
2022-12-27T20:56:30.802Z,6.82
2022-12-27T20:58:58.715Z,6.81
2022-12-27T21:01:26.473Z,6.82
2022-12-27T21:04:02.031Z,6.83
2022-12-27T21:06:32.215Z,6.85
2022-12-27T21:08:58.883Z,6.90
2022-12-27T21:11:31.783Z,6.89
2022-12-27T21:14:00.200Z,6.87
2022-12-27T21:16:29.897Z,6.87
2022-12-27T21:19:02.839Z,6.82
2022-12-27T21:21:34.050Z,6.90
2022-12-27T21:24:01.158Z,6.90
2022-12-27T21:26:33.478Z,6.96
2022-12-27T21:29:00.560Z,6.88
2022-12-27T21:31:27.665Z,6.91
2022-12-27T21:33:54.515Z,6.92
2022-12-27T21:36:24.736Z,6.90
2022-12-27T21:38:52.390Z,6.91
2022-12-27T21:41:26.463Z,6.95
2022-12-27T21:43:53.516Z,6.89
2022-12-27T21:46:29.291Z,6.84
2022-12-27T21:48:59.214Z,6.79
2022-12-27T21:51:26.919Z,6.79
2022-12-27T21:53:54.309Z,6.79
2022-12-27T21:56:22.107Z,6.84
2022-12-27T21:58:49.142Z,6.82
2022-12-27T22:01:20.909Z,6.78
2022-12-27T22:03:49.720Z,6.74
2022-12-27T22:06:18.200Z,6.73
2022-12-27T22:08:46.673Z,6.62
2022-12-27T22:11:14.839Z,6.57
2022-12-27T22:13:43.635Z,6.52
2022-12-27T22:16:19.758Z,6.48
2022-12-27T22:18:46.862Z,6.38
2022-12-27T22:21:21.888Z,6.27
2022-12-27T22:23:50.941Z,6.20
2022-12-27T22:26:21.883Z,6.18
2022-12-27T22:28:48.742Z,6.13
2022-12-27T22:31:17.612Z,6.14
2022-12-27T22:33:44.204Z,6.11
2022-12-27T22:36:13.516Z,6.06
2022-12-27T22:38:40.743Z,6.05
2022-12-27T22:41:12.537Z,6.02
2022-12-27T22:43:40.087Z,5.98
2022-12-27T22:46:09.004Z,5.97
2022-12-27T22:48:35.743Z,5.95
2022-12-27T22:51:16.477Z,5.97
2022-12-27T22:53:43.131Z,5.96
2022-12-27T22:56:18.396Z,5.98
2022-12-27T22:58:45.574Z,6.00
2022-12-27T23:01:19.642Z,6.06
2022-12-27T23:03:47.037Z,6.08
2022-12-27T23:06:13.961Z,6.13
2022-12-27T23:08:44.258Z,6.17
2022-12-27T23:11:15.467Z,6.23
2022-12-27T23:13:42.128Z,6.19
2022-12-27T23:16:08.932Z,6.27
2022-12-27T23:18:39.441Z,6.24
2022-12-27T23:21:21.864Z,6.26
2022-12-27T23:23:51.138Z,6.27
2022-12-27T23:26:20.802Z,6.33
2022-12-27T23:28:48.421Z,6.37
2022-12-27T23:31:15.347Z,6.37
2022-12-27T23:33:43.840Z,6.38
2022-12-27T23:36:11.600Z,6.37
2022-12-27T23:38:38.211Z,6.38
2022-12-27T23:41:07.412Z,6.36
2022-12-27T23:43:54.223Z,6.38
2022-12-27T23:46:24.396Z,6.37
2022-12-27T23:48:51.509Z,6.38
2022-12-27T23:51:19.658Z,6.37
2022-12-27T23:53:46.664Z,6.36
2022-12-27T23:56:15.922Z,6.47
2022-12-27T23:58:43.428Z,6.47
